Time;durP1;ratioP1;P1;durP2;ratioP2;P2;SDS_P1;SDS_P2;PMS_P1;PMS_P2;Temp;Humidity;BMP_temperature;BMP_pressure;BME280_temperature;BME280_humidity;BME280_pressure;Samples;Min_cycle;Max_cycle;Signal;HPM_P1;HPM_P2
2021/06/04 00:00:11;;;;;;;9.48;4.25;;;;;;;15.57;54.99;99536.09;5115933;28;19916;-93
2021/06/04 00:02:37;;;;;;;8.77;4.60;;;;;;;15.48;54.90;99544.44;5115731;28;20054;-91
2021/06/04 00:05:05;;;;;;;6.78;4.15;;;;;;;15.47;54.90;99536.47;5115724;28;20055;-94
2021/06/04 00:07:31;;;;;;;7.43;4.30;;;;;;;15.41;55.25;99526.84;5112790;28;20143;-92
2021/06/04 00:09:57;;;;;;;8.32;4.60;;;;;;;15.28;55.44;99514.78;5115744;28;20043;-95
2021/06/04 00:12:24;;;;;;;6.47;4.10;;;;;;;15.19;56.18;99524.03;5116107;28;20051;-93
2021/06/04 00:15:05;;;;;;;8.85;4.82;;;;;;;15.26;55.86;99535.41;5114427;28;20099;-93
2021/06/04 00:17:32;;;;;;;6.07;4.35;;;;;;;15.09;56.33;99509.19;5106424;28;20067;-95
2021/06/04 00:19:58;;;;;;;6.30;3.85;;;;;;;15.08;55.76;99499.41;5100898;28;20048;-92
2021/06/04 00:22:28;;;;;;;8.70;4.30;;;;;;;15.16;55.94;99514.28;5102317;28;20070;-93
2021/06/04 00:24:57;;;;;;;6.68;4.22;;;;;;;15.20;56.06;99513.25;5102091;28;20044;-95
2021/06/04 00:27:23;;;;;;;6.03;4.10;;;;;;;15.14;56.25;99513.47;5101258;28;20446;-93
2021/06/04 00:29:49;;;;;;;7.63;4.00;;;;;;;15.16;55.93;99521.47;5100334;28;20679;-92
2021/06/04 00:32:18;;;;;;;6.05;3.65;;;;;;;15.25;55.78;99539.91;5100558;28;20063;-92
2021/06/04 00:34:46;;;;;;;11.20;4.13;;;;;;;15.14;57.09;99532.22;5099775;28;20597;-93
2021/06/04 00:37:12;;;;;;;6.70;4.03;;;;;;;15.12;57.07;99536.75;5100655;28;20056;-93
2021/06/04 00:39:39;;;;;;;5.85;3.63;;;;;;;15.13;57.02;99537.63;5100710;28;20110;-96
2021/06/04 00:42:12;;;;;;;5.38;3.90;;;;;;;14.97;56.56;99511.34;5101097;28;20109;-93
2021/06/04 00:44:38;;;;;;;6.13;4.10;;;;;;;15.06;56.57;99538.75;5100793;28;20107;-93
2021/06/04 00:47:05;;;;;;;8.20;3.75;;;;;;;14.93;55.95;99525.75;5101099;28;20135;-94
2021/06/04 00:49:31;;;;;;;5.80;3.60;;;;;;;14.94;55.86;99530.22;5101064;28;20048;-95
2021/06/04 00:52:03;;;;;;;8.88;3.75;;;;;;;14.82;56.09;99502.94;5100569;28;20089;-93
2021/06/04 00:54:29;;;;;;;6.72;3.75;;;;;;;14.95;55.36;99515.88;5101437;28;20070;-92
2021/06/04 00:56:56;;;;;;;7.35;3.85;;;;;;;14.89;55.95;99534.81;5100587;28;20050;-93
2021/06/04 01:02:24;;;;;;;5.43;3.63;;;;;;;14.77;56.78;99530.75;5151544;27;20138;-92
2021/06/04 01:04:49;;;;;;;5.90;3.80;;;;;;;14.70;56.14;99520.25;5136393;27;20455;-90
2021/06/04 01:07:21;;;;;;;4.82;3.58;;;;;;;14.62;56.88;99525.88;5136748;27;20039;-92
2021/06/04 01:10:05;;;;;;;5.18;3.60;;;;;;;14.54;56.91;99523.41;5136067;27;20092;-90
2021/06/04 01:12:57;;;;;;;5.93;3.80;;;;;;;14.68;57.03;99548.88;5131419;28;20062;-92
2021/06/04 01:15:43;;;;;;;9.65;3.90;;;;;;;14.60;57.65;99532.22;5121229;27;20039;-89
2021/06/04 01:18:17;;;;;;;7.70;3.60;;;;;;;14.66;58.23;99540.03;5135838;27;20050;-93
2021/06/04 01:20:46;;;;;;;6.40;4.10;;;;;;;14.66;58.27;99534.66;5137334;27;20440;-92
2021/06/04 01:23:30;;;;;;;8.10;4.35;;;;;;;14.63;58.50;99541.00;5135089;28;20044;-91
2021/06/04 01:26:02;;;;;;;6.65;4.10;;;;;;;14.51;59.30;99526.19;5134749;27;20040;-93
2021/06/04 01:28:32;;;;;;;7.28;4.22;;;;;;;14.62;58.93;99552.66;5134449;27;20043;-95
2021/06/04 01:31:04;;;;;;;5.47;3.90;;;;;;;14.49;59.50;99541.41;5133247;27;20039;-93
2021/06/04 01:33:37;;;;;;;8.23;4.38;;;;;;;14.58;59.87;99545.63;5135077;27;20036;-94
2021/06/04 01:36:06;;;;;;;6.45;4.00;;;;;;;14.50;59.64;99539.59;5121456;28;20100;-94
2021/06/04 01:38:36;;;;;;;5.05;3.85;;;;;;;14.42;59.68;99541.63;5133276;27;20086;-95
2021/06/04 01:41:09;;;;;;;5.43;4.07;;;;;;;14.39;59.94;99554.16;5134453;28;20071;-94
2021/06/04 01:43:40;;;;;;;6.30;4.03;;;;;;;14.32;59.87;99541.91;5135228;27;20118;-94
2021/06/04 01:46:11;;;;;;;5.78;3.72;;;;;;;14.25;60.15;99528.75;5135885;27;20040;-95
2021/06/04 01:48:42;;;;;;;7.10;3.95;;;;;;;14.40;59.68;99552.41;5133870;27;20500;-92
2021/06/04 01:51:13;;;;;;;8.48;4.32;;;;;;;14.36;60.34;99551.59;5133536;27;20096;-94
2021/06/04 01:53:43;;;;;;;5.63;4.10;;;;;;;14.21;60.74;99536.00;5133209;27;20039;-93
2021/06/04 01:56:14;;;;;;;9.98;4.18;;;;;;;14.14;61.03;99527.28;5132269;27;20061;-93
2021/06/04 01:58:45;;;;;;;6.75;4.40;;;;;;;14.11;61.13;99523.81;5133642;27;20070;-93
2021/06/04 02:01:14;;;;;;;6.20;4.10;;;;;;;14.13;61.41;99533.53;5132354;27;20051;-94
2021/06/04 02:03:41;;;;;;;5.63;4.13;;;;;;;14.12;61.78;99533.63;5132926;27;20392;-92
2021/06/04 02:06:07;;;;;;;6.78;4.18;;;;;;;14.04;62.05;99531.16;5131808;28;20039;-95
2021/06/04 02:08:37;;;;;;;7.03;4.70;;;;;;;14.12;62.31;99550.53;5133618;27;20043;-95
2021/06/04 02:11:05;;;;;;;6.32;4.22;;;;;;;14.04;62.30;99544.53;5130982;28;20027;-92
2021/06/04 02:13:32;;;;;;;6.57;4.07;;;;;;;13.99;61.87;99546.47;5115575;28;20043;-94
2021/06/04 02:16:11;;;;;;;5.60;3.95;;;;;;;13.92;62.20;99540.41;5117655;28;20074;-94
2021/06/04 02:18:47;;;;;;;6.07;4.25;;;;;;;13.87;62.18;99538.78;5119491;27;20086;-92
2021/06/04 02:21:19;;;;;;;6.55;4.43;;;;;;;13.79;62.01;99538.09;5107082;28;20418;-93
2021/06/04 02:23:51;;;;;;;6.45;4.25;;;;;;;13.81;61.99;99557.66;5120599;28;20042;-91
2021/06/04 02:26:23;;;;;;;7.70;4.60;;;;;;;13.72;62.44;99548.97;5117038;28;20088;-91
2021/06/04 02:28:55;;;;;;;6.35;4.18;;;;;;;13.61;62.91;99545.72;5120593;28;20047;-94
2021/06/04 02:31:28;;;;;;;5.75;4.20;;;;;;;13.56;63.00;99558.34;5119394;28;20122;-92
2021/06/04 02:33:59;;;;;;;6.20;4.07;;;;;;;13.47;63.42;99540.75;5120101;28;20036;-93
2021/06/04 02:36:29;;;;;;;7.25;4.70;;;;;;;13.52;62.94;99559.31;5118641;28;20040;-92
2021/06/04 02:39:04;;;;;;;7.53;4.47;;;;;;;13.60;63.86;99565.34;5119019;28;20067;-95
2021/06/04 02:41:33;;;;;;;6.07;4.57;;;;;;;13.51;63.56;99549.53;5118318;28;20038;-93
2021/06/04 02:44:06;;;;;;;5.53;4.15;;;;;;;13.66;63.06;99566.97;5120246;28;20039;-94
2021/06/04 02:46:36;;;;;;;9.27;4.85;;;;;;;13.41;63.43;99543.56;5114836;28;20039;-93
2021/06/04 02:49:05;;;;;;;6.28;4.15;;;;;;;13.37;63.77;99541.03;5118767;28;20051;-94
2021/06/04 02:51:34;;;;;;;7.50;4.82;;;;;;;13.50;63.23;99555.81;5121005;28;20081;-94
2021/06/04 02:54:04;;;;;;;7.30;4.32;;;;;;;13.48;62.63;99545.16;5120330;28;20046;-94
2021/06/04 02:56:34;;;;;;;7.97;4.20;;;;;;;13.49;62.75;99556.75;5123595;28;20049;-92
2021/06/04 02:59:07;;;;;;;7.80;4.35;;;;;;;13.47;63.15;99575.50;5118528;28;20039;-92
2021/06/04 03:01:36;;;;;;;7.90;4.80;;;;;;;13.35;63.87;99557.09;5115885;28;20405;-93
2021/06/04 03:04:04;;;;;;;6.95;4.60;;;;;;;13.39;63.53;99576.59;5117146;28;20073;-94
2021/06/04 03:06:34;;;;;;;5.35;4.22;;;;;;;13.35;63.34;99576.66;5117797;28;20040;-93
2021/06/04 03:09:01;;;;;;;6.78;4.47;;;;;;;13.21;63.56;99568.09;5118218;28;20043;-94
2021/06/04 03:11:28;;;;;;;9.27;4.70;;;;;;;13.21;63.70;99557.41;5119640;28;20032;-91
2021/06/04 03:13:54;;;;;;;9.27;5.82;;;;;;;13.18;63.84;99545.94;5117405;27;20123;-93
2021/06/04 03:16:24;;;;;;;7.40;4.60;;;;;;;13.20;64.16;99555.66;5119436;28;20040;-92
2021/06/04 03:18:53;;;;;;;8.50;4.90;;;;;;;13.29;64.17;99575.94;5118837;28;20510;-93
2021/06/04 03:21:28;;;;;;;9.73;4.57;;;;;;;13.13;64.31;99556.72;5118520;28;20412;-93
2021/06/04 03:23:55;;;;;;;6.18;4.60;;;;;;;13.22;64.88;99583.19;5117443;28;20039;-92
2021/06/04 03:26:24;;;;;;;7.43;5.05;;;;;;;13.01;64.87;99568.59;5119331;28;20055;-93
2021/06/04 03:28:52;;;;;;;8.45;4.93;;;;;;;13.19;65.05;99588.63;5118057;28;20043;-93
2021/06/04 03:31:24;;;;;;;6.20;4.40;;;;;;;13.08;64.70;99555.97;5114450;28;20035;-94
2021/06/04 03:33:50;;;;;;;7.32;4.55;;;;;;;13.10;64.86;99565.69;5116390;28;20039;-94
2021/06/04 03:36:20;;;;;;;6.75;4.60;;;;;;;13.12;64.75;99563.88;5117632;28;20504;-94
2021/06/04 03:38:47;;;;;;;8.30;4.90;;;;;;;13.11;65.19;99574.59;5117039;28;20043;-94
2021/06/04 03:41:16;;;;;;;6.60;4.68;;;;;;;13.06;65.13;99560.47;5116990;28;20082;-93
2021/06/04 03:43:42;;;;;;;7.57;4.70;;;;;;;13.13;65.48;99568.28;5117301;28;20067;-92
2021/06/04 03:46:08;;;;;;;6.68;4.90;;;;;;;13.11;65.76;99571.91;5115025;28;20133;-92
2021/06/04 03:48:36;;;;;;;6.93;4.57;;;;;;;12.99;65.49;99562.41;5116983;28;20096;-93
2021/06/04 03:51:05;;;;;;;9.07;5.40;;;;;;;12.89;65.97;99566.22;5117728;28;20043;-92
2021/06/04 03:53:32;;;;;;;6.88;4.85;;;;;;;12.90;66.42;99566.19;5117203;28;20059;-92
2021/06/04 03:55:58;;;;;;;7.90;4.93;;;;;;;12.91;66.12;99565.25;5117367;28;20059;-93
2021/06/04 03:58:26;;;;;;;7.15;4.53;;;;;;;13.02;65.78;99578.34;5117214;28;20044;-92
2021/06/04 04:00:54;;;;;;;8.75;4.72;;;;;;;13.03;65.27;99579.22;5116482;28;20069;-91
2021/06/04 04:03:23;;;;;;;10.50;5.18;;;;;;;13.17;64.98;99598.47;5117158;28;20040;-93
2021/06/04 04:05:50;;;;;;;7.77;5.23;;;;;;;13.04;65.48;99573.84;5117452;28;20036;-92
2021/06/04 04:08:19;;;;;;;9.73;4.95;;;;;;;13.02;65.77;99578.34;5115005;28;20311;-95
2021/06/04 04:10:45;;;;;;;6.25;4.70;;;;;;;13.16;66.37;99607.38;5116550;28;20032;-91
2021/06/04 04:13:15;;;;;;;6.85;4.82;;;;;;;13.17;66.66;99602.94;5116544;28;20066;-92
2021/06/04 04:15:42;;;;;;;7.13;4.95;;;;;;;13.15;67.11;99602.97;5115213;28;20043;-92
2021/06/04 04:18:09;;;;;;;8.13;4.85;;;;;;;13.15;66.96;99601.16;5117252;27;20040;-92
2021/06/04 04:20:39;;;;;;;7.50;4.85;;;;;;;13.23;66.94;99617.03;5119658;28;20036;-91
2021/06/04 04:23:08;;;;;;;6.60;4.78;;;;;;;13.32;66.17;99613.28;5120688;28;20141;-92
2021/06/04 04:25:37;;;;;;;5.65;4.63;;;;;;;13.32;66.03;99615.94;5115360;28;20042;-92
2021/06/04 04:28:06;;;;;;;6.80;5.00;;;;;;;13.24;66.22;99597.41;5116250;28;20131;-94
2021/06/04 04:30:32;;;;;;;7.57;5.15;;;;;;;13.36;66.57;99606.94;5115485;28;20036;-92
2021/06/04 04:32:58;;;;;;;7.05;4.85;;;;;;;13.27;66.22;99586.66;5118296;28;20046;-92
2021/06/04 04:35:28;;;;;;;7.25;5.38;;;;;;;13.41;66.45;99601.50;5117879;28;20048;-92
2021/06/04 04:37:54;;;;;;;8.85;5.00;;;;;;;13.47;66.33;99610.22;5116010;28;20484;-93
2021/06/04 04:40:24;;;;;;;11.50;5.32;;;;;;;13.40;67.00;99589.91;5114145;27;20051;-92
2021/06/04 04:42:50;;;;;;;8.70;5.57;;;;;;;13.44;66.58;99588.03;5115737;28;20136;-92
2021/06/04 04:45:21;;;;;;;7.10;5.13;;;;;;;13.51;66.54;99587.84;5113828;28;20071;-92
2021/06/04 04:47:47;;;;;;;12.77;5.03;;;;;;;13.79;65.52;99602.25;5115878;28;20055;-95
2021/06/04 04:50:14;;;;;;;10.85;5.70;;;;;;;13.82;65.31;99587.03;5115928;28;20128;-93
2021/06/04 04:52:40;;;;;;;7.47;5.28;;;;;;;13.99;65.45;99602.63;5116972;28;20043;-94
2021/06/04 04:55:07;;;;;;;9.18;5.50;;;;;;;14.09;64.87;99573.81;5115882;28;20043;-94
2021/06/04 04:57:35;;;;;;;10.48;5.55;;;;;;;14.82;62.94;99600.22;5116164;28;20096;-92
2021/06/04 05:00:00;;;;;;;11.00;5.20;;;;;;;15.55;59.23;99586.22;5114575;28;20085;-93
2021/06/04 05:02:27;;;;;;;7.57;4.97;;;;;;;15.86;56.92;99568.22;5117698;28;20067;-92
2021/06/04 05:04:53;;;;;;;7.20;4.80;;;;;;;16.57;55.39;99580.75;5117331;28;20035;-93
2021/06/04 05:07:19;;;;;;;7.65;4.88;;;;;;;17.08;53.92;99567.16;5122299;28;20055;-92
2021/06/04 05:09:45;;;;;;;8.52;5.20;;;;;;;17.57;52.52;99567.78;5119155;28;20036;-92
2021/06/04 05:12:12;;;;;;;7.53;4.60;;;;;;;17.94;51.40;99566.22;5119072;28;20131;-92
2021/06/04 05:14:39;;;;;;;7.22;4.85;;;;;;;18.10;51.30;99556.47;5118593;28;20036;-93
2021/06/04 05:17:06;;;;;;;10.32;4.75;;;;;;;18.61;49.66;99570.31;5117732;28;20131;-92
2021/06/04 05:19:32;;;;;;;8.45;4.68;;;;;;;18.88;48.95;99560.91;5120095;28;20055;-94
2021/06/04 05:21:58;;;;;;;6.72;4.80;;;;;;;19.00;48.32;99566.69;5114646;28;20032;-92
2021/06/04 05:24:25;;;;;;;8.45;4.90;;;;;;;19.14;48.47;99588.44;5114238;28;20063;-92
2021/06/04 05:26:51;;;;;;;6.13;4.82;;;;;;;19.64;47.73;99571.50;5115492;28;20467;-93
2021/06/04 05:29:17;;;;;;;7.97;4.60;;;;;;;19.34;48.49;99579.34;5118502;28;20127;-92
2021/06/04 05:31:45;;;;;;;6.55;5.40;;;;;;;19.41;47.28;99567.31;5115940;28;20066;-91
2021/06/04 05:34:12;;;;;;;9.23;4.53;;;;;;;18.99;48.34;99560.41;5114982;28;20047;-93
2021/06/04 05:36:39;;;;;;;7.60;4.65;;;;;;;18.85;48.96;99553.00;5109073;28;20074;-95
2021/06/04 05:39:08;;;;;;;7.22;4.40;;;;;;;19.12;48.50;99570.59;5117143;28;20050;-93
2021/06/04 05:41:35;;;;;;;7.32;4.70;;;;;;;19.15;48.99;99579.41;5118402;28;20092;-94
2021/06/04 05:44:01;;;;;;;8.48;4.68;;;;;;;19.41;48.74;99571.81;5119103;28;20063;-93
2021/06/04 05:46:27;;;;;;;13.48;5.53;;;;;;;19.71;47.83;99555.91;5118188;28;20039;-94
2021/06/04 05:48:54;;;;;;;8.55;5.10;;;;;;;20.13;46.60;99554.63;5121566;28;20099;-93
2021/06/04 05:51:25;;;;;;;7.07;4.70;;;;;;;20.23;46.41;99566.66;5122610;28;20035;-93
2021/06/04 05:53:52;;;;;;;5.85;4.30;;;;;;;20.33;45.94;99571.56;5117951;28;20111;-95
2021/06/04 05:56:19;;;;;;;6.60;4.53;;;;;;;20.25;45.78;99556.63;5115722;28;20055;-94
2021/06/04 05:58:45;;;;;;;15.57;4.68;;;;;;;20.35;45.46;99561.56;5120641;28;20039;-94
2021/06/04 06:01:13;;;;;;;7.45;4.95;;;;;;;20.55;45.20;99555.91;5119181;28;20100;-94
2021/06/04 06:03:39;;;;;;;7.30;4.60;;;;;;;20.59;44.78;99549.41;5119226;28;20040;-95
2021/06/04 06:06:08;;;;;;;7.20;4.60;;;;;;;20.96;44.05;99566.25;5119401;28;20116;-95
2021/06/04 06:08:34;;;;;;;8.40;4.10;;;;;;;21.06;43.73;99569.31;5120296;28;20051;-94
2021/06/04 06:11:00;;;;;;;8.52;4.55;;;;;;;21.08;44.20;99552.03;5119919;28;20052;-94
2021/06/04 06:13:26;;;;;;;8.07;4.70;;;;;;;21.01;44.28;99574.09;5119192;28;20485;-94
2021/06/04 06:15:53;;;;;;;7.63;4.45;;;;;;;21.13;43.90;99555.34;5120116;28;20101;-94
2021/06/04 06:18:20;;;;;;;7.88;4.72;;;;;;;21.11;43.91;99565.38;5119624;28;20082;-95
2021/06/04 06:20:46;;;;;;;7.80;4.65;;;;;;;21.34;43.70;99555.06;5119506;28;20485;-93
2021/06/04 06:23:16;;;;;;;8.75;4.57;;;;;;;21.36;43.79;99549.53;5121993;28;20055;-95
2021/06/04 06:25:45;;;;;;;7.95;5.22;;;;;;;21.52;42.77;99551.28;5122475;28;20043;-94
2021/06/04 06:28:12;;;;;;;;;;;;;;;21.65;41.16;99567.66;5123473;28;20036;-94
2021/06/04 06:30:39;;;;;;;8.02;4.65;;;;;;;21.69;41.94;99568.34;5120966;27;20027;-95
2021/06/04 06:33:06;;;;;;;7.85;4.55;;;;;;;21.71;41.18;99559.19;5120658;28;20518;-94
2021/06/04 06:35:36;;;;;;;7.93;4.30;;;;;;;21.75;41.85;99557.13;5118785;28;20126;-93
2021/06/04 06:38:02;;;;;;;6.97;4.40;;;;;;;21.80;41.60;99549.63;5118901;28;20069;-94
2021/06/04 06:40:29;;;;;;;9.80;4.70;;;;;;;21.94;39.64;99568.59;5120311;28;20043;-93
2021/06/04 06:42:55;;;;;;;7.78;4.43;;;;;;;22.02;40.34;99564.56;5121169;27;20054;-95
2021/06/04 06:48:22;;;;;;;6.95;4.47;;;;;;;22.11;41.04;99564.84;5151035;27;20837;-94
2021/06/04 06:50:49;;;;;;;11.02;4.75;;;;;;;22.48;41.20;99572.53;5135393;27;20104;-93
2021/06/04 06:53:16;;;;;;;7.88;4.75;;;;;;;22.05;40.45;99551.69;5136086;27;20051;-93
2021/06/04 06:55:44;;;;;;;8.77;4.65;;;;;;;22.26;42.08;99557.63;5134469;27;20480;-94
2021/06/04 06:58:11;;;;;;;7.30;5.07;;;;;;;22.42;42.01;99548.53;5123382;28;20381;-89
2021/06/04 07:00:41;;;;;;;6.43;4.72;;;;;;;22.60;41.10;99570.88;5128842;27;20064;-91
2021/06/04 07:03:08;;;;;;;8.35;4.95;;;;;;;22.51;41.79;99572.34;5131004;27;20043;-92
2021/06/04 07:05:36;;;;;;;6.30;4.75;;;;;;;22.77;41.73;99562.56;5131229;27;20089;-91
2021/06/04 07:08:03;;;;;;;7.93;4.65;;;;;;;22.91;40.73;99558.94;5128498;28;20067;-92
2021/06/04 07:10:30;;;;;;;8.10;4.78;;;;;;;23.11;40.10;99569.38;5130985;27;20500;-91
2021/06/04 07:12:58;;;;;;;7.90;4.50;;;;;;;23.22;39.80;99565.06;5130169;27;20468;-90
2021/06/04 07:15:25;;;;;;;6.63;4.53;;;;;;;23.25;38.53;99575.72;5129456;27;20044;-92
2021/06/04 07:20:50;;;;;;;9.02;4.70;;;;;;;22.96;40.05;99594.75;4902212;27;91027;-92
2021/06/04 07:23:17;;;;;;;9.23;4.57;;;;;;;23.07;39.51;99578.66;5063238;28;20106;-90
2021/06/04 07:25:45;;;;;;;10.43;5.20;;;;;;;23.41;39.33;99572.88;5067340;28;20037;-90
2021/06/04 07:28:12;;;;;;;7.38;4.97;;;;;;;23.75;38.75;99588.63;5058006;28;20041;-92
2021/06/04 07:30:42;;;;;;;16.52;5.05;;;;;;;23.88;38.44;99582.38;5063495;28;20546;-92
2021/06/04 07:33:11;;;;;;;7.35;4.80;;;;;;;24.29;37.33;99597.59;5057453;28;20045;-90
2021/06/04 07:35:38;;;;;;;11.80;4.88;;;;;;;24.28;36.63;99583.16;5060182;28;20064;-91
2021/06/04 07:38:06;;;;;;;12.57;4.70;;;;;;;23.79;37.00;99597.47;5062403;28;20060;-91
2021/06/04 07:40:34;;;;;;;8.85;5.28;;;;;;;24.16;36.71;99594.91;5059358;28;20045;-92
2021/06/04 07:43:03;;;;;;;7.60;4.73;;;;;;;24.42;36.09;99579.47;5051703;28;20048;-93
2021/06/04 07:45:31;;;;;;;9.55;4.35;;;;;;;24.54;35.77;99578.59;5063239;28;20043;-93
2021/06/04 07:47:58;;;;;;;14.02;4.50;;;;;;;24.64;35.20;99559.78;5057074;28;20045;-93
2021/06/04 07:50:24;;;;;;;10.18;4.80;;;;;;;24.37;34.55;99560.72;5057727;28;20116;-92
2021/06/04 07:52:49;;;;;;;9.40;4.22;;;;;;;24.65;34.30;99568.81;5059082;28;20044;-93
2021/06/04 07:55:17;;;;;;;6.57;4.55;;;;;;;24.92;33.33;99560.47;5060313;28;20522;-91
2021/06/04 07:57:43;;;;;;;5.97;4.30;;;;;;;25.18;32.20;99572.16;5059388;28;20376;-92
2021/06/04 08:00:12;;;;;;;8.32;4.45;;;;;;;25.26;32.77;99569.72;5056028;28;20120;-90
2021/06/04 08:02:38;;;;;;;8.48;4.25;;;;;;;25.45;32.74;99580.09;5059094;28;20398;-92
2021/06/04 08:05:06;;;;;;;8.00;4.57;;;;;;;25.63;31.89;99572.38;5060530;28;20083;-93
2021/06/04 08:07:31;;;;;;;8.65;4.25;;;;;;;25.24;33.07;99570.84;5060289;28;20075;-94
2021/06/04 08:09:59;;;;;;;10.20;4.53;;;;;;;25.37;33.00;99574.38;5057833;28;20044;-94
2021/06/04 08:12:30;;;;;;;10.77;4.60;;;;;;;25.58;32.83;99570.00;5063371;28;20041;-94
2021/06/04 08:14:57;;;;;;;9.55;4.32;;;;;;;25.79;32.30;99562.03;5065497;28;20073;-95
2021/06/04 08:17:24;;;;;;;10.35;4.78;;;;;;;25.93;32.76;99571.03;5059652;28;20043;-95
2021/06/04 08:19:50;;;;;;;10.50;4.78;;;;;;;26.09;31.72;99568.84;5059813;28;20525;-91
2021/06/04 08:22:16;;;;;;;11.25;4.80;;;;;;;26.06;31.40;99562.75;5059143;28;20120;-91
2021/06/04 08:24:42;;;;;;;13.32;5.00;;;;;;;25.87;31.28;99580.50;5064723;28;20052;-90
2021/06/04 08:27:08;;;;;;;8.77;4.40;;;;;;;25.94;31.16;99561.88;5062969;28;20037;-92
2021/06/04 08:29:36;;;;;;;9.77;4.88;;;;;;;26.08;31.65;99558.06;5055287;28;20041;-91
2021/06/04 08:32:04;;;;;;;8.93;4.28;;;;;;;26.33;30.78;99568.75;5038336;28;20102;-91
2021/06/04 08:34:31;;;;;;;9.52;4.22;;;;;;;25.71;31.13;99566.34;5049983;28;20045;-91
2021/06/04 08:36:57;;;;;;;8.30;4.45;;;;;;;25.65;31.89;99561.38;5050665;28;20045;-92
2021/06/04 08:42:30;;;;;;;9.73;4.88;;;;;;;26.43;31.48;99564.28;5139038;27;20136;-93
2021/06/04 08:45:12;;;;;;;7.60;4.43;;;;;;;26.63;30.82;99576.38;5132598;27;20039;-91
2021/06/04 08:47:42;;;;;;;7.82;4.43;;;;;;;26.87;30.37;99566.28;5132708;27;20027;-90
2021/06/04 08:50:24;;;;;;;7.82;4.40;;;;;;;26.96;30.59;99555.50;5126584;28;20050;-91
2021/06/04 08:52:58;;;;;;;7.20;4.18;;;;;;;27.13;29.82;99565.03;5132007;27;20495;-91
2021/06/04 08:55:37;;;;;;;10.90;4.63;;;;;;;26.94;29.16;99562.09;5131997;27;20050;-92
2021/06/04 08:58:28;;;;;;;7.80;4.75;;;;;;;27.07;29.64;99560.06;5132060;27;20049;-92
2021/06/04 09:00:57;;;;;;;7.07;4.20;;;;;;;27.13;29.68;99572.31;5130231;28;20097;-90
2021/06/04 09:03:29;;;;;;;7.30;4.30;;;;;;;27.13;29.22;99553.22;5133659;27;20138;-94
2021/06/04 09:05:59;;;;;;;9.90;4.60;;;;;;;27.33;29.24;99543.41;5133517;27;20438;-92
2021/06/04 09:08:28;;;;;;;10.80;4.95;;;;;;;27.62;29.04;99554.56;5131997;27;20047;-92
2021/06/04 09:10:56;;;;;;;7.93;4.57;;;;;;;27.71;28.96;99558.38;5130500;27;20051;-91
2021/06/04 09:13:29;;;;;;;8.45;4.43;;;;;;;27.75;28.99;99540.72;5131275;28;20400;-91
2021/06/04 09:16:07;;;;;;;8.95;4.25;;;;;;;27.83;28.17;99543.66;5129525;27;20139;-91
2021/06/04 09:18:42;;;;;;;9.32;4.72;;;;;;;27.54;27.65;99559.81;5130165;28;20036;-92
2021/06/04 09:21:17;;;;;;;8.27;4.45;;;;;;;27.54;27.22;99559.81;5131557;27;20122;-92
2021/06/04 09:23:44;;;;;;;5.97;3.47;;;;;;;27.71;25.11;99559.25;5131684;27;20050;-92
2021/06/04 09:26:14;;;;;;;7.22;3.80;;;;;;;27.53;26.52;99541.72;5131729;27;20515;-92
2021/06/04 09:28:47;;;;;;;7.63;3.80;;;;;;;27.77;27.13;99550.53;5132935;28;20043;-92
2021/06/04 09:31:31;;;;;;;9.07;4.30;;;;;;;27.69;28.08;99555.78;5127178;28;20047;-92
2021/06/04 09:34:09;;;;;;;8.27;4.50;;;;;;;27.72;28.02;99546.47;5131948;27;20092;-96
2021/06/04 09:36:43;;;;;;;7.05;4.88;;;;;;;26.60;29.80;99562.09;5131730;27;20114;-90
2021/06/04 09:39:34;;;;;;;8.25;4.80;;;;;;;26.53;29.69;99549.94;5131402;27;20130;-90
2021/06/04 09:42:19;;;;;;;5.68;4.30;;;;;;;27.30;27.22;99543.66;5131143;27;20138;-89
2021/06/04 09:44:56;;;;;;;7.30;4.15;;;;;;;27.68;26.67;99536.81;5128108;28;20040;-92
2021/06/04 09:47:34;;;;;;;7.88;3.90;;;;;;;28.01;26.61;99546.69;5131261;27;20051;-93
2021/06/04 09:50:16;;;;;;;7.00;3.90;;;;;;;28.22;24.78;99535.75;5131577;27;20039;-91
2021/06/04 09:52:42;;;;;;;6.85;3.90;;;;;;;28.32;24.68;99547.59;5123035;27;20049;-92
2021/06/04 09:55:26;;;;;;;11.43;3.67;;;;;;;28.33;24.40;99535.66;5117442;28;20043;-91
2021/06/04 09:58:17;;;;;;;6.38;3.90;;;;;;;28.60;23.75;99542.44;5117498;28;20074;-91
2021/06/04 10:00:53;;;;;;;6.00;3.60;;;;;;;28.73;24.14;99534.84;5111398;27;20112;-90
2021/06/04 10:03:30;;;;;;;6.85;3.67;;;;;;;28.12;22.91;99521.16;5115775;28;20042;-91
2021/06/04 10:06:37;;;;;;;5.18;3.75;;;;;;;28.51;23.37;99548.72;5116983;28;20062;-91
2021/06/04 10:09:18;;;;;;;5.72;4.00;;;;;;;28.32;23.20;99550.31;5054474;28;20049;-92
2021/06/04 10:11:50;;;;;;;5.80;3.88;;;;;;;27.94;23.49;99534.56;5051509;28;20056;-93
2021/06/04 10:14:24;;;;;;;6.00;3.65;;;;;;;28.15;23.23;99526.34;5053683;28;20059;-91
2021/06/04 10:19:42;;;;;;;4.60;3.40;;;;;;;28.64;24.25;99517.38;5148701;27;20569;-91
2021/06/04 10:22:28;;;;;;;4.68;3.70;;;;;;;28.86;23.07;99521.78;5128550;28;20053;-92
2021/06/04 10:25:17;;;;;;;5.57;3.50;;;;;;;28.84;22.02;99526.53;5131538;27;20504;-91
2021/06/04 10:27:47;;;;;;;6.95;3.30;;;;;;;28.95;21.20;99531.03;5128225;28;20031;-94
2021/06/04 10:30:17;;;;;;;4.47;3.30;;;;;;;28.91;21.92;99507.69;5129228;28;20043;-91
2021/06/04 10:32:52;;;;;;;5.22;3.65;;;;;;;29.06;21.76;99513.59;5132502;27;20035;-91
2021/06/04 10:35:24;;;;;;;7.80;3.30;;;;;;;29.06;20.52;99511.75;5132188;27;20042;-91
2021/06/04 10:37:57;;;;;;;4.63;3.13;;;;;;;28.80;20.66;99508.66;5133754;27;20040;-91
2021/06/04 10:40:29;;;;;;;6.05;3.60;;;;;;;29.16;20.89;99514.50;5134550;27;20054;-92
2021/06/04 10:43:10;;;;;;;7.03;4.07;;;;;;;29.16;20.88;99489.00;5132635;27;20103;-92
2021/06/04 10:45:48;;;;;;;7.68;3.42;;;;;;;29.11;19.52;99497.66;5133354;28;20047;-92
2021/06/04 10:48:28;;;;;;;5.50;3.42;;;;;;;28.93;19.65;99513.00;5134756;27;20035;-92
2021/06/04 10:51:08;;;;;;;5.88;3.40;;;;;;;28.85;20.34;99498.16;5133113;27;20377;-92
2021/06/04 10:53:47;;;;;;;6.82;3.75;;;;;;;29.06;20.28;99499.91;5132503;27;20047;-92
2021/06/04 10:56:19;;;;;;;8.02;3.30;;;;;;;29.07;20.26;99494.28;5131542;28;20112;-90
2021/06/04 10:58:55;;;;;;;5.65;3.33;;;;;;;29.33;20.09;99509.34;5133246;27;20070;-91
2021/06/04 11:01:39;;;;;;;5.60;3.50;;;;;;;29.45;20.19;99502.69;5130671;28;20039;-92
2021/06/04 11:04:13;;;;;;;5.72;3.50;;;;;;;29.38;20.19;99491.44;5132120;28;20074;-90
2021/06/04 11:06:59;;;;;;;4.88;3.28;;;;;;;29.28;19.16;99504.31;5130679;27;20039;-92
2021/06/04 11:09:33;;;;;;;4.22;3.10;;;;;;;28.85;20.65;99498.16;5131554;27;20039;-92
2021/06/04 11:12:13;;;;;;;5.47;3.42;;;;;;;28.62;22.35;99497.50;5131439;27;20045;-93
2021/06/04 11:15:03;;;;;;;6.80;3.38;;;;;;;29.10;21.62;99501.38;5131728;27;20027;-93
2021/06/04 11:17:38;;;;;;;6.40;3.20;;;;;;;29.12;20.70;99471.97;5127120;27;20096;-93
2021/06/04 11:20:11;;;;;;;5.60;3.10;;;;;;;29.31;21.06;99468.38;5130102;28;20130;-91
2021/06/04 11:22:44;;;;;;;5.35;3.35;;;;;;;29.44;20.52;99477.19;5130890;27;20126;-90
2021/06/04 11:25:29;;;;;;;6.68;3.40;;;;;;;29.52;21.71;99481.94;5126314;28;20063;-90
2021/06/04 11:28:06;;;;;;;5.63;3.20;;;;;;;29.49;21.32;99469.41;5130215;27;20047;-92
2021/06/04 11:30:33;;;;;;;5.45;3.25;;;;;;;29.63;21.56;99478.19;5117723;28;20089;-90
2021/06/04 11:33:03;;;;;;;4.88;3.30;;;;;;;29.29;21.08;99464.94;5117566;28;20075;-92
2021/06/04 11:35:33;;;;;;;5.78;3.30;;;;;;;29.32;22.91;99450.97;5117284;28;20378;-93
2021/06/04 11:38:05;;;;;;;17.63;3.60;;;;;;;29.58;21.60;99464.03;5116264;28;20480;-91
2021/06/04 11:40:35;;;;;;;5.53;3.55;;;;;;;29.61;20.14;99472.84;5116549;28;20043;-91
2021/06/04 11:43:07;;;;;;;5.35;3.40;;;;;;;29.45;21.09;99462.47;5109410;28;20050;-93
2021/06/04 11:45:36;;;;;;;7.55;3.67;;;;;;;29.38;22.56;99454.97;5116367;28;20032;-92
2021/06/04 11:48:35;;;;;;;4.78;3.33;;;;;;;29.55;22.98;99465.19;5116132;28;20043;-93
2021/06/04 11:51:25;;;;;;;6.15;3.40;;;;;;;29.80;22.25;99460.16;5098446;28;20057;-92
2021/06/04 11:53:56;;;;;;;5.63;3.30;;;;;;;29.77;22.25;99454.97;5107948;28;20043;-92
2021/06/04 11:56:44;;;;;;;5.93;3.42;;;;;;;29.56;21.76;99449.63;5117280;28;20047;-93
2021/06/04 11:59:12;;;;;;;;;;;;;;;29.70;21.65;99454.69;5114730;28;20032;-91
2021/06/04 12:01:42;;;;;;;4.50;3.25;;;;;;;29.81;21.41;99450.91;5115345;28;19920;-91
2021/06/04 12:04:17;;;;;;;5.15;3.10;;;;;;;29.32;20.89;99450.97;5115231;28;20036;-91